sensor_id;sensor_type;location;lat;lon;timestamp;pressure;altitude;pressure_sealevel;temperature;humidity
67738;BME280;54534;43.612;1.572;2023-01-30T00:00:30;100363.44;;;13.50;39.44
67738;BME280;54534;43.612;1.572;2023-01-30T00:02:56;100366.94;;;13.50;39.33
67738;BME280;54534;43.612;1.572;2023-01-30T00:05:21;100363.44;;;13.50;39.37
67738;BME280;54534;43.612;1.572;2023-01-30T00:07:46;100366.97;;;13.49;39.21
67738;BME280;54534;43.612;1.572;2023-01-30T00:10:12;100366.97;;;13.49;39.23
67738;BME280;54534;43.612;1.572;2023-01-30T00:12:38;100366.97;;;13.49;38.90
67738;BME280;54534;43.612;1.572;2023-01-30T00:15:04;100366.97;;;13.49;38.97
67738;BME280;54534;43.612;1.572;2023-01-30T00:17:29;100361.69;;;13.49;39.36
67738;BME280;54534;43.612;1.572;2023-01-30T00:19:55;100361.69;;;13.49;39.17
67738;BME280;54534;43.612;1.572;2023-01-30T00:22:20;100367.06;;;13.47;39.11
67738;BME280;54534;43.612;1.572;2023-01-30T00:24:46;100360.88;;;13.48;39.46
67738;BME280;54534;43.612;1.572;2023-01-30T00:27:11;100359.13;;;13.47;39.21
67738;BME280;54534;43.612;1.572;2023-01-30T00:29:36;100361.78;;;13.47;39.48
67738;BME280;54534;43.612;1.572;2023-01-30T00:32:02;100363.53;;;13.46;39.37
67738;BME280;54534;43.612;1.572;2023-01-30T00:34:27;100363.53;;;13.46;39.31
67738;BME280;54534;43.612;1.572;2023-01-30T00:36:53;100353.84;;;13.47;38.87
67738;BME280;54534;43.612;1.572;2023-01-30T00:39:18;100352.97;;;13.46;39.32
67738;BME280;54534;43.612;1.572;2023-01-30T00:41:43;100353.06;;;13.45;39.19
67738;BME280;54534;43.612;1.572;2023-01-30T00:44:27;100339.84;;;13.45;39.00
67738;BME280;54534;43.612;1.572;2023-01-30T00:47:11;100351.28;;;13.45;38.79
67738;BME280;54534;43.612;1.572;2023-01-30T00:49:37;100355.69;;;13.45;38.87
67738;BME280;54534;43.612;1.572;2023-01-30T00:52:03;100346.03;;;13.44;38.96
67738;BME280;54534;43.612;1.572;2023-01-30T00:54:29;100342.53;;;13.43;39.39
67738;BME280;54534;43.612;1.572;2023-01-30T00:56:55;100338.97;;;13.44;38.99
67738;BME280;54534;43.612;1.572;2023-01-30T00:59:20;100347.78;;;13.45;38.78
67738;BME280;54534;43.612;1.572;2023-01-30T01:01:45;100341.63;;;13.44;38.92
67738;BME280;54534;43.612;1.572;2023-01-30T01:04:11;100340.75;;;13.44;39.10
67738;BME280;54534;43.612;1.572;2023-01-30T01:06:38;100347.81;;;13.43;39.39
67738;BME280;54534;43.612;1.572;2023-01-30T01:09:05;100340.75;;;13.44;39.28
67738;BME280;54534;43.612;1.572;2023-01-30T01:11:30;100336.41;;;13.43;39.02
67738;BME280;54534;43.612;1.572;2023-01-30T01:13:58;100353.97;;;13.44;38.78
67738;BME280;54534;43.612;1.572;2023-01-30T01:16:25;100348.75;;;13.42;39.27
67738;BME280;54534;43.612;1.572;2023-01-30T01:18:51;100345.16;;;13.43;39.24
67738;BME280;54534;43.612;1.572;2023-01-30T01:21:18;100346.97;;;13.43;39.37
67738;BME280;54534;43.612;1.572;2023-01-30T01:23:43;100347.03;;;13.41;39.47
67738;BME280;54534;43.612;1.572;2023-01-30T01:26:13;100351.41;;;13.42;38.86
67738;BME280;54534;43.612;1.572;2023-01-30T01:28:38;100351.41;;;13.42;39.38
67738;BME280;54534;43.612;1.572;2023-01-30T01:31:09;100353.16;;;13.42;39.68
67738;BME280;54534;43.612;1.572;2023-01-30T01:33:34;100352.31;;;13.41;38.86
67738;BME280;54534;43.612;1.572;2023-01-30T01:36:00;100357.59;;;13.41;39.10
67738;BME280;54534;43.612;1.572;2023-01-30T01:38:25;100360.22;;;13.41;39.37
67738;BME280;54534;43.612;1.572;2023-01-30T01:40:50;100359.38;;;13.41;39.29
67738;BME280;54534;43.612;1.572;2023-01-30T01:43:36;100350.59;;;13.40;39.33
67738;BME280;54534;43.612;1.572;2023-01-30T01:46:17;100364.66;;;13.41;39.18
67738;BME280;54534;43.612;1.572;2023-01-30T01:48:48;100374.38;;;13.40;39.02
67738;BME280;54534;43.612;1.572;2023-01-30T01:51:36;100374.38;;;13.40;39.04
67738;BME280;54534;43.612;1.572;2023-01-30T01:54:07;100370.91;;;13.38;39.05
67738;BME280;54534;43.612;1.572;2023-01-30T01:56:34;100377.94;;;13.39;39.28
67738;BME280;54534;43.612;1.572;2023-01-30T01:59:05;100379.72;;;13.39;38.85
67738;BME280;54534;43.612;1.572;2023-01-30T02:01:33;100376.19;;;13.38;38.88
67738;BME280;54534;43.612;1.572;2023-01-30T02:04:02;100385.91;;;13.38;38.96
67738;BME280;54534;43.612;1.572;2023-01-30T02:06:29;100388.53;;;13.38;38.89
67738;BME280;54534;43.612;1.572;2023-01-30T02:08:58;100386.75;;;13.38;39.33
67738;BME280;54534;43.612;1.572;2023-01-30T02:13:56;100400.91;;;13.37;39.23
67738;BME280;54534;43.612;1.572;2023-01-30T02:16:22;100395.63;;;13.37;38.96
67738;BME280;54534;43.612;1.572;2023-01-30T02:18:48;100400.91;;;13.37;39.12
67738;BME280;54534;43.612;1.572;2023-01-30T02:22:09;100400.91;;;13.37;39.37
67738;BME280;54534;43.612;1.572;2023-01-30T02:32:16;100400.09;;;13.35;39.21
67738;BME280;54534;43.612;1.572;2023-01-30T02:40:47;100393.09;;;13.34;38.72
67738;BME280;54534;43.612;1.572;2023-01-30T02:45:46;100381.66;;;13.33;39.21
67738;BME280;54534;43.612;1.572;2023-01-30T02:51:03;100376.38;;;13.33;39.32
67738;BME280;54534;43.612;1.572;2023-01-30T02:53:32;100363.19;;;13.33;39.11
67738;BME280;54534;43.612;1.572;2023-01-30T02:55:58;100360.53;;;13.33;39.21
67738;BME280;54534;43.612;1.572;2023-01-30T02:58:28;100361.44;;;13.32;39.33
67738;BME280;54534;43.612;1.572;2023-01-30T03:06:34;100357.97;;;13.32;39.10
67738;BME280;54534;43.612;1.572;2023-01-30T03:09:15;100350.94;;;13.31;38.85
67738;BME280;54534;43.612;1.572;2023-01-30T03:14:43;100351.84;;;13.30;38.95
67738;BME280;54534;43.612;1.572;2023-01-30T03:17:11;100353.59;;;13.31;39.02
67738;BME280;54534;43.612;1.572;2023-01-30T03:19:38;100352.72;;;13.30;38.86
67738;BME280;54534;43.612;1.572;2023-01-30T03:22:04;100353.59;;;13.31;38.91
67738;BME280;54534;43.612;1.572;2023-01-30T03:24:29;100351.84;;;13.30;39.01
67738;BME280;54534;43.612;1.572;2023-01-30T03:27:02;100350.94;;;13.31;39.03
67738;BME280;54534;43.612;1.572;2023-01-30T03:29:30;100357.16;;;13.30;39.19
67738;BME280;54534;43.612;1.572;2023-01-30T03:31:55;100354.50;;;13.30;39.42
67738;BME280;54534;43.612;1.572;2023-01-30T03:34:20;100355.44;;;13.29;39.21
67738;BME280;54534;43.612;1.572;2023-01-30T03:36:46;100361.59;;;13.29;39.33
67738;BME280;54534;43.612;1.572;2023-01-30T03:39:12;100364.22;;;13.29;39.16
67738;BME280;54534;43.612;1.572;2023-01-30T03:41:38;100373.94;;;13.29;39.18
67738;BME280;54534;43.612;1.572;2023-01-30T03:44:04;100369.56;;;13.28;38.94
67738;BME280;54534;43.612;1.572;2023-01-30T03:46:29;100372.19;;;13.28;39.13
67738;BME280;54534;43.612;1.572;2023-01-30T03:48:54;100391.56;;;13.28;39.11
67738;BME280;54534;43.612;1.572;2023-01-30T03:51:20;100389.00;;;13.27;39.14
67738;BME280;54534;43.612;1.572;2023-01-30T03:53:45;100387.19;;;13.27;39.08
67738;BME280;54534;43.612;1.572;2023-01-30T03:56:11;100389.00;;;13.27;38.81
67738;BME280;54534;43.612;1.572;2023-01-30T03:58:36;100399.56;;;13.27;38.87
67738;BME280;54534;43.612;1.572;2023-01-30T04:01:01;100396.91;;;13.27;39.38
67738;BME280;54534;43.612;1.572;2023-01-30T04:03:27;100399.56;;;13.27;39.59
67738;BME280;54534;43.612;1.572;2023-01-30T04:05:52;100403.03;;;13.27;39.10
67738;BME280;54534;43.612;1.572;2023-01-30T04:08:17;100396.03;;;13.26;39.05
67738;BME280;54534;43.612;1.572;2023-01-30T04:10:43;100401.38;;;13.24;39.30
67738;BME280;54534;43.612;1.572;2023-01-30T04:13:08;100404.84;;;13.27;39.43
67738;BME280;54534;43.612;1.572;2023-01-30T04:15:33;100406.59;;;13.26;38.97
67738;BME280;54534;43.612;1.572;2023-01-30T04:17:59;100408.38;;;13.26;39.37
67738;BME280;54534;43.612;1.572;2023-01-30T04:20:24;100408.38;;;13.26;38.91
67738;BME280;54534;43.612;1.572;2023-01-30T04:22:50;100418.09;;;13.25;39.21
67738;BME280;54534;43.612;1.572;2023-01-30T04:25:15;100428.66;;;13.25;38.93
67738;BME280;54534;43.612;1.572;2023-01-30T04:27:41;100427.78;;;13.24;39.03
67738;BME280;54534;43.612;1.572;2023-01-30T04:30:09;100427.78;;;13.24;38.91
67738;BME280;54534;43.612;1.572;2023-01-30T04:32:34;100435.69;;;13.24;39.25
67738;BME280;54534;43.612;1.572;2023-01-30T04:35:00;100443.63;;;13.24;39.13
67738;BME280;54534;43.612;1.572;2023-01-30T04:37:25;100445.44;;;13.24;39.57
67738;BME280;54534;43.612;1.572;2023-01-30T04:39:50;100455.13;;;13.23;39.32
67738;BME280;54534;43.612;1.572;2023-01-30T04:42:16;100463.06;;;13.23;39.14
67738;BME280;54534;43.612;1.572;2023-01-30T04:44:41;100470.97;;;13.23;38.86
67738;BME280;54534;43.612;1.572;2023-01-30T04:47:07;100476.25;;;13.23;39.12
67738;BME280;54534;43.612;1.572;2023-01-30T04:49:32;100475.38;;;13.23;39.40
67738;BME280;54534;43.612;1.572;2023-01-30T04:51:57;100466.59;;;13.22;39.69
67738;BME280;54534;43.612;1.572;2023-01-30T04:54:23;100462.28;;;13.20;39.24
67738;BME280;54534;43.612;1.572;2023-01-30T04:56:48;100463.16;;;13.20;39.25
67738;BME280;54534;43.612;1.572;2023-01-30T04:59:14;100453.50;;;13.19;39.28
67738;BME280;54534;43.612;1.572;2023-01-30T05:01:39;100457.00;;;13.20;38.79
67738;BME280;54534;43.612;1.572;2023-01-30T05:04:06;100451.81;;;13.18;39.11
67738;BME280;54534;43.612;1.572;2023-01-30T05:06:32;100443.88;;;13.18;39.41
67738;BME280;54534;43.612;1.572;2023-01-30T05:08:58;100431.59;;;13.17;39.45
67738;BME280;54534;43.612;1.572;2023-01-30T05:11:25;100435.09;;;13.18;39.37
67738;BME280;54534;43.612;1.572;2023-01-30T05:13:51;100432.44;;;13.18;39.59
67738;BME280;54534;43.612;1.572;2023-01-30T05:16:17;100431.59;;;13.17;39.16
67738;BME280;54534;43.612;1.572;2023-01-30T05:18:43;100421.88;;;13.18;39.08
67738;BME280;54534;43.612;1.572;2023-01-30T05:21:12;100413.09;;;13.17;39.20
67738;BME280;54534;43.612;1.572;2023-01-30T05:23:38;100406.94;;;13.17;39.13
67738;BME280;54534;43.612;1.572;2023-01-30T05:26:03;100412.28;;;13.15;39.54
67738;BME280;54534;43.612;1.572;2023-01-30T05:28:29;100414.94;;;13.15;39.58
67738;BME280;54534;43.612;1.572;2023-01-30T05:31:06;100417.50;;;13.17;38.75
67738;BME280;54534;43.612;1.572;2023-01-30T05:33:33;100422.84;;;13.15;39.04
67738;BME280;54534;43.612;1.572;2023-01-30T05:35:58;100432.56;;;13.15;39.03
67738;BME280;54534;43.612;1.572;2023-01-30T05:38:25;100432.56;;;13.15;38.82
67738;BME280;54534;43.612;1.572;2023-01-30T05:41:01;100424.59;;;13.16;39.02
67738;BME280;54534;43.612;1.572;2023-01-30T05:43:27;100426.41;;;13.14;38.91
67738;BME280;54534;43.612;1.572;2023-01-30T05:45:55;100426.41;;;13.14;39.23
67738;BME280;54534;43.612;1.572;2023-01-30T05:48:22;100436.06;;;13.15;39.58
67738;BME280;54534;43.612;1.572;2023-01-30T05:50:53;100437.84;;;13.15;39.33
67738;BME280;54534;43.612;1.572;2023-01-30T05:53:19;100437.91;;;13.13;39.39
67738;BME280;54534;43.612;1.572;2023-01-30T05:55:45;100435.28;;;13.13;39.21
67738;BME280;54534;43.612;1.572;2023-01-30T05:58:11;100437.91;;;13.13;39.28
67738;BME280;54534;43.612;1.572;2023-01-30T06:00:36;100427.34;;;13.13;39.46
67738;BME280;54534;43.612;1.572;2023-01-30T06:03:02;100437.91;;;13.13;39.26
67738;BME280;54534;43.612;1.572;2023-01-30T06:05:27;100446.69;;;13.14;39.21
67738;BME280;54534;43.612;1.572;2023-01-30T06:07:52;100448.47;;;13.13;39.16
67738;BME280;54534;43.612;1.572;2023-01-30T06:10:18;100445.84;;;13.13;39.20
67738;BME280;54534;43.612;1.572;2023-01-30T06:12:43;100440.56;;;13.13;39.42
67738;BME280;54534;43.612;1.572;2023-01-30T06:15:09;100444.97;;;13.12;38.96
67738;BME280;54534;43.612;1.572;2023-01-30T06:17:35;100444.97;;;13.12;39.21
67738;BME280;54534;43.612;1.572;2023-01-30T06:20:00;100439.69;;;13.12;39.27
67738;BME280;54534;43.612;1.572;2023-01-30T06:22:26;100443.19;;;13.13;38.93
67738;BME280;54534;43.612;1.572;2023-01-30T06:24:51;100450.25;;;13.12;39.09
67738;BME280;54534;43.612;1.572;2023-01-30T06:27:16;100452.97;;;13.11;39.51
67738;BME280;54534;43.612;1.572;2023-01-30T06:29:43;100455.59;;;13.11;38.90
67738;BME280;54534;43.612;1.572;2023-01-30T06:32:08;100457.31;;;13.12;38.97
67738;BME280;54534;43.612;1.572;2023-01-30T06:34:34;100452.97;;;13.11;39.07
67738;BME280;54534;43.612;1.572;2023-01-30T06:37:00;100456.44;;;13.11;39.45
67738;BME280;54534;43.612;1.572;2023-01-30T06:39:25;100448.59;;;13.10;39.25
67738;BME280;54534;43.612;1.572;2023-01-30T06:41:50;100448.59;;;13.10;39.64
67738;BME280;54534;43.612;1.572;2023-01-30T06:44:16;100445.94;;;13.10;39.49
67738;BME280;54534;43.612;1.572;2023-01-30T06:46:41;100437.22;;;13.08;39.35
67738;BME280;54534;43.612;1.572;2023-01-30T06:49:07;100439.78;;;13.09;38.96
67738;BME280;54534;43.612;1.572;2023-01-30T06:51:32;100447.78;;;13.08;39.25
67738;BME280;54534;43.612;1.572;2023-01-30T06:53:57;100443.41;;;13.07;39.06
67738;BME280;54534;43.612;1.572;2023-01-30T06:56:23;100445.16;;;13.08;39.11
67738;BME280;54534;43.612;1.572;2023-01-30T06:58:48;100453.97;;;13.07;39.03
67738;BME280;54534;43.612;1.572;2023-01-30T07:01:13;100454.03;;;13.05;39.27
67738;BME280;54534;43.612;1.572;2023-01-30T07:03:39;100451.41;;;13.05;39.51
67738;BME280;54534;43.612;1.572;2023-01-30T07:06:04;100459.31;;;13.05;39.10
67738;BME280;54534;43.612;1.572;2023-01-30T07:08:30;100460.19;;;13.06;39.32
67738;BME280;54534;43.612;1.572;2023-01-30T07:10:55;100458.44;;;13.05;39.02
67738;BME280;54534;43.612;1.572;2023-01-30T07:13:21;100469.00;;;13.05;39.28
67738;BME280;54534;43.612;1.572;2023-01-30T07:15:46;100469.88;;;13.05;39.29
67738;BME280;54534;43.612;1.572;2023-01-30T07:18:12;100475.19;;;13.04;39.33
67738;BME280;54534;43.612;1.572;2023-01-30T07:20:37;100483.13;;;13.04;39.25
67738;BME280;54534;43.612;1.572;2023-01-30T07:23:03;100484.94;;;13.03;38.93
67738;BME280;54534;43.612;1.572;2023-01-30T07:25:28;100482.28;;;13.03;39.16
67738;BME280;54534;43.612;1.572;2023-01-30T07:27:56;100485.84;;;13.02;39.12
67738;BME280;54534;43.612;1.572;2023-01-30T07:30:22;100473.59;;;12.99;38.79
67738;BME280;54534;43.612;1.572;2023-01-30T07:32:52;100482.31;;;13.01;39.29
67738;BME280;54534;43.612;1.572;2023-01-30T07:35:19;100477.91;;;13.02;39.13
67738;BME280;54534;43.612;1.572;2023-01-30T07:37:46;100475.28;;;13.02;39.55
67738;BME280;54534;43.612;1.572;2023-01-30T07:40:12;100479.69;;;13.01;39.49
67738;BME280;54534;43.612;1.572;2023-01-30T07:42:37;100483.19;;;13.02;39.30
67738;BME280;54534;43.612;1.572;2023-01-30T07:45:03;100476.13;;;13.03;39.09
67738;BME280;54534;43.612;1.572;2023-01-30T07:47:28;100479.66;;;13.03;39.29
67738;BME280;54534;43.612;1.572;2023-01-30T07:49:55;100477.91;;;13.02;39.18
67738;BME280;54534;43.612;1.572;2023-01-30T07:52:20;100477.03;;;13.01;39.29
67738;BME280;54534;43.612;1.572;2023-01-30T07:54:46;100479.66;;;13.03;39.18
67738;BME280;54534;43.612;1.572;2023-01-30T07:57:11;100482.28;;;13.03;39.20
67738;BME280;54534;43.612;1.572;2023-01-30T07:59:37;100482.31;;;13.01;38.98
67738;BME280;54534;43.612;1.572;2023-01-30T08:02:02;100481.41;;;13.03;39.39
67738;BME280;54534;43.612;1.572;2023-01-30T08:04:27;100492.00;;;13.01;39.28
67738;BME280;54534;43.612;1.572;2023-01-30T08:06:53;100490.25;;;13.01;38.97
67738;BME280;54534;43.612;1.572;2023-01-30T08:09:18;100485.88;;;13.00;38.79
67738;BME280;54534;43.612;1.572;2023-01-30T08:11:43;100489.38;;;13.01;39.35
67738;BME280;54534;43.612;1.572;2023-01-30T08:14:10;100502.56;;;13.01;39.44
67738;BME280;54534;43.612;1.572;2023-01-30T08:16:35;100506.16;;;13.00;39.39
67738;BME280;54534;43.612;1.572;2023-01-30T08:19:03;100508.78;;;13.00;39.06
67738;BME280;54534;43.612;1.572;2023-01-30T08:21:29;100503.50;;;13.00;39.13
67738;BME280;54534;43.612;1.572;2023-01-30T08:23:54;100513.22;;;12.99;39.35
67738;BME280;54534;43.612;1.572;2023-01-30T08:26:19;100525.53;;;12.99;39.11
67738;BME280;54534;43.612;1.572;2023-01-30T08:28:45;100520.31;;;12.97;39.01
67738;BME280;54534;43.612;1.572;2023-01-30T08:31:12;100525.53;;;12.99;39.08
67738;BME280;54534;43.612;1.572;2023-01-30T08:33:37;100527.31;;;12.98;39.28
67738;BME280;54534;43.612;1.572;2023-01-30T08:36:03;100533.47;;;12.99;39.43
67738;BME280;54534;43.612;1.572;2023-01-30T08:38:29;100536.09;;;12.99;39.19
67738;BME280;54534;43.612;1.572;2023-01-30T08:40:54;100528.19;;;12.99;39.15
67738;BME280;54534;43.612;1.572;2023-01-30T08:43:22;100530.88;;;12.97;39.15
67738;BME280;54534;43.612;1.572;2023-01-30T08:45:47;100530.88;;;12.97;38.84
67738;BME280;54534;43.612;1.572;2023-01-30T08:48:13;100526.56;;;12.95;38.96
67738;BME280;54534;43.612;1.572;2023-01-30T08:50:38;100521.22;;;12.96;39.05
67738;BME280;54534;43.612;1.572;2023-01-30T08:53:05;100522.09;;;12.97;39.06
67738;BME280;54534;43.612;1.572;2023-01-30T08:55:31;100526.50;;;12.96;38.94
67738;BME280;54534;43.612;1.572;2023-01-30T08:57:57;100516.81;;;12.97;38.97
67738;BME280;54534;43.612;1.572;2023-01-30T09:00:23;100525.59;;;12.97;39.10
67738;BME280;54534;43.612;1.572;2023-01-30T09:02:52;100519.50;;;12.95;38.93
67738;BME280;54534;43.612;1.572;2023-01-30T09:05:17;100516.84;;;12.95;39.19
67738;BME280;54534;43.612;1.572;2023-01-30T09:07:43;100514.22;;;12.95;39.21
67738;BME280;54534;43.612;1.572;2023-01-30T09:10:08;100522.19;;;12.94;38.68
67738;BME280;54534;43.612;1.572;2023-01-30T09:12:34;100528.34;;;12.94;39.07
67738;BME280;54534;43.612;1.572;2023-01-30T09:14:59;100529.22;;;12.95;38.90
67738;BME280;54534;43.612;1.572;2023-01-30T09:17:25;100531.91;;;12.93;39.18
67738;BME280;54534;43.612;1.572;2023-01-30T09:19:50;100534.53;;;12.93;39.24
67738;BME280;54534;43.612;1.572;2023-01-30T09:22:16;100548.59;;;12.94;38.94
67738;BME280;54534;43.612;1.572;2023-01-30T09:24:41;100547.78;;;12.92;39.05
67738;BME280;54534;43.612;1.572;2023-01-30T09:27:07;100555.66;;;12.93;39.19
67738;BME280;54534;43.612;1.572;2023-01-30T09:29:33;100561.88;;;12.92;39.04
67738;BME280;54534;43.612;1.572;2023-01-30T09:31:58;100563.63;;;12.92;39.13
67738;BME280;54534;43.612;1.572;2023-01-30T09:34:25;100570.63;;;12.93;39.12
67738;BME280;54534;43.612;1.572;2023-01-30T09:36:58;100560.13;;;12.91;39.10
67738;BME280;54534;43.612;1.572;2023-01-30T09:39:26;100567.19;;;12.90;39.06
67738;BME280;54534;43.612;1.572;2023-01-30T09:55:19;100581.31;;;12.89;39.34
67738;BME280;54534;43.612;1.572;2023-01-30T09:57:50;100585.72;;;12.89;39.14
67738;BME280;54534;43.612;1.572;2023-01-30T10:00:36;100593.66;;;12.89;38.98
67738;BME280;54534;43.612;1.572;2023-01-30T10:03:10;100584.84;;;12.88;39.11
67738;BME280;54534;43.612;1.572;2023-01-30T10:05:48;100578.72;;;12.88;39.19
67738;BME280;54534;43.612;1.572;2023-01-30T10:17:20;100598.97;;;12.87;38.99
67738;BME280;54534;43.612;1.572;2023-01-30T10:25:32;100596.38;;;12.86;39.14
67738;BME280;54534;43.612;1.572;2023-01-30T10:30:35;100593.75;;;12.86;38.99
67738;BME280;54534;43.612;1.572;2023-01-30T10:33:09;100598.13;;;12.87;38.95
67738;BME280;54534;43.612;1.572;2023-01-30T10:35:40;100595.56;;;12.84;38.98
67738;BME280;54534;43.612;1.572;2023-01-30T10:38:20;100603.44;;;12.85;38.86
67738;BME280;54534;43.612;1.572;2023-01-30T10:41:06;100579.69;;;12.85;39.00
67738;BME280;54534;43.612;1.572;2023-01-30T10:43:40;100576.22;;;12.83;38.93
67738;BME280;54534;43.612;1.572;2023-01-30T10:49:04;100573.59;;;12.83;39.31
67738;BME280;54534;43.612;1.572;2023-01-30T10:59:49;100560.47;;;12.82;38.94
67738;BME280;54534;43.612;1.572;2023-01-30T11:02:27;100563.94;;;12.82;39.04
67738;BME280;54534;43.612;1.572;2023-01-30T11:05:03;100563.09;;;12.82;39.03
67738;BME280;54534;43.612;1.572;2023-01-30T11:07:34;100570.16;;;12.81;39.18
67738;BME280;54534;43.612;1.572;2023-01-30T11:10:00;100562.22;;;12.81;39.35
67738;BME280;54534;43.612;1.572;2023-01-30T11:12:25;100556.09;;;12.81;38.71
67738;BME280;54534;43.612;1.572;2023-01-30T11:14:59;100565.75;;;12.82;39.19
67738;BME280;54534;43.612;1.572;2023-01-30T11:17:35;100563.09;;;12.82;38.99
67738;BME280;54534;43.612;1.572;2023-01-30T11:20:12;100548.16;;;12.81;39.36
67738;BME280;54534;43.612;1.572;2023-01-30T11:22:51;100544.63;;;12.82;39.22
67738;BME280;54534;43.612;1.572;2023-01-30T11:25:22;100540.31;;;12.79;39.17
67738;BME280;54534;43.612;1.572;2023-01-30T11:27:59;100555.22;;;12.80;39.28
67738;BME280;54534;43.612;1.572;2023-01-30T11:30:31;100547.25;;;12.82;39.26
67738;BME280;54534;43.612;1.572;2023-01-30T11:33:15;100540.19;;;12.82;39.30
67738;BME280;54534;43.612;1.572;2023-01-30T11:35:54;100545.53;;;12.81;39.16
67738;BME280;54534;43.612;1.572;2023-01-30T11:43:34;100546.44;;;12.79;39.05
67738;BME280;54534;43.612;1.572;2023-01-30T11:46:00;100537.59;;;12.81;39.27
67738;BME280;54534;43.612;1.572;2023-01-30T11:48:27;100534.97;;;12.81;39.21
67738;BME280;54534;43.612;1.572;2023-01-30T11:50:58;100535.88;;;12.79;39.47
67738;BME280;54534;43.612;1.572;2023-01-30T11:56:03;100521.84;;;12.79;39.35
67738;BME280;54534;43.612;1.572;2023-01-30T11:58:36;100524.47;;;12.79;39.19
67738;BME280;54534;43.612;1.572;2023-01-30T12:01:02;100517.47;;;12.78;39.04
67738;BME280;54534;43.612;1.572;2023-01-30T12:03:30;100519.22;;;12.77;39.01
67738;BME280;54534;43.612;1.572;2023-01-30T12:05:56;100518.31;;;12.78;39.20
67738;BME280;54534;43.612;1.572;2023-01-30T12:08:26;100512.19;;;12.78;38.90
67738;BME280;54534;43.612;1.572;2023-01-30T12:10:54;100514.81;;;12.78;39.05
67738;BME280;54534;43.612;1.572;2023-01-30T12:13:23;100511.38;;;12.76;39.26
67738;BME280;54534;43.612;1.572;2023-01-30T12:15:56;100507.88;;;12.75;38.95
67738;BME280;54534;43.612;1.572;2023-01-30T12:18:31;100506.91;;;12.78;39.25
67738;BME280;54534;43.612;1.572;2023-01-30T12:21:01;100507.78;;;12.78;39.57
67738;BME280;54534;43.612;1.572;2023-01-30T12:26:11;100506.03;;;12.77;39.26
67738;BME280;54534;43.612;1.572;2023-01-30T12:31:15;100504.25;;;12.78;39.02
67738;BME280;54534;43.612;1.572;2023-01-30T12:33:42;100506.91;;;12.78;39.27
67738;BME280;54534;43.612;1.572;2023-01-30T12:39:05;100493.72;;;12.78;39.29
67738;BME280;54534;43.612;1.572;2023-01-30T12:57:39;100449.75;;;12.77;39.27
67738;BME280;54534;43.612;1.572;2023-01-30T13:00:21;100457.63;;;12.78;39.22
67738;BME280;54534;43.612;1.572;2023-01-30T13:03:26;100444.47;;;12.77;39.19
67738;BME280;54534;43.612;1.572;2023-01-30T13:06:23;100446.31;;;12.75;39.40
67738;BME280;54534;43.612;1.572;2023-01-30T13:11:47;100429.56;;;12.76;39.00
67738;BME280;54534;43.612;1.572;2023-01-30T13:14:35;100440.06;;;12.77;39.28
67738;BME280;54534;43.612;1.572;2023-01-30T13:17:37;100434.78;;;12.77;39.34
67738;BME280;54534;43.612;1.572;2023-01-30T13:27:37;100428.69;;;12.75;39.17
67738;BME280;54534;43.612;1.572;2023-01-30T13:30:06;100421.69;;;12.74;39.13
67738;BME280;54534;43.612;1.572;2023-01-30T13:35:06;100425.19;;;12.75;39.52
67738;BME280;54534;43.612;1.572;2023-01-30T13:37:38;100423.41;;;12.75;39.50
67738;BME280;54534;43.612;1.572;2023-01-30T13:40:17;100425.16;;;12.76;39.58
67738;BME280;54534;43.612;1.572;2023-01-30T13:45:15;100413.72;;;12.76;39.56
67738;BME280;54534;43.612;1.572;2023-01-30T13:53:24;100403.22;;;12.74;39.37
67738;BME280;54534;43.612;1.572;2023-01-30T13:58:49;100408.50;;;12.74;39.06
67738;BME280;54534;43.612;1.572;2023-01-30T14:01:17;100409.41;;;12.73;39.38
67738;BME280;54534;43.612;1.572;2023-01-30T14:03:44;100407.66;;;12.74;39.25
67738;BME280;54534;43.612;1.572;2023-01-30T14:06:11;100407.66;;;12.74;39.12
67738;BME280;54534;43.612;1.572;2023-01-30T14:16:46;100424.31;;;12.74;39.43
67738;BME280;54534;43.612;1.572;2023-01-30T14:22:22;100429.59;;;12.74;39.52
67738;BME280;54534;43.612;1.572;2023-01-30T14:28:42;100417.34;;;12.73;39.58
67738;BME280;54534;43.612;1.572;2023-01-30T14:35:44;100418.22;;;12.74;39.63
67738;BME280;54534;43.612;1.572;2023-01-30T14:38:20;100417.34;;;12.73;39.63
67738;BME280;54534;43.612;1.572;2023-01-30T14:45:47;100416.38;;;12.76;39.68
67738;BME280;54534;43.612;1.572;2023-01-30T14:48:28;100412.88;;;12.75;39.56
67738;BME280;54534;43.612;1.572;2023-01-30T14:51:25;100402.22;;;12.77;39.53
67738;BME280;54534;43.612;1.572;2023-01-30T14:54:03;100398.78;;;12.75;39.69
67738;BME280;54534;43.612;1.572;2023-01-30T14:56:56;100399.66;;;12.75;39.67
67738;BME280;54534;43.612;1.572;2023-01-30T14:59:24;100406.78;;;12.73;39.73
67738;BME280;54534;43.612;1.572;2023-01-30T15:05:09;100399.72;;;12.74;39.54
67738;BME280;54534;43.612;1.572;2023-01-30T15:07:39;100406.78;;;12.73;39.64
67738;BME280;54534;43.612;1.572;2023-01-30T15:32:40;100399.66;;;12.75;39.79
67738;BME280;54534;43.612;1.572;2023-01-30T15:37:47;100400.28;;;12.82;39.98
67738;BME280;54534;43.612;1.572;2023-01-30T15:42:58;100392.09;;;12.90;39.84
67738;BME280;54534;43.612;1.572;2023-01-30T15:45:33;100397.25;;;12.93;40.05
67738;BME280;54534;43.612;1.572;2023-01-30T15:48:24;100406.72;;;12.99;40.05
67738;BME280;54534;43.612;1.572;2023-01-30T15:50:56;100411.91;;;13.02;40.10
67738;BME280;54534;43.612;1.572;2023-01-30T15:53:34;100420.50;;;13.07;39.86
67738;BME280;54534;43.612;1.572;2023-01-30T15:56:05;100422.09;;;13.11;40.25
67738;BME280;54534;43.612;1.572;2023-01-30T15:58:39;100417.56;;;13.15;40.13
67738;BME280;54534;43.612;1.572;2023-01-30T16:01:05;100420.91;;;13.20;39.90